Time;durP1;ratioP1;P1;durP2;ratioP2;P2;SDS_P1;SDS_P2;PMS_P1;PMS_P2;Temp;Humidity;BMP_temperature;BMP_pressure;BME280_temperature;BME280_humidity;BME280_pressure;Samples;Min_cycle;Max_cycle;Signal;HPM_P1;HPM_P2
2023/05/16 00:00:07;;;;;;;9.40;8.43;;;18.10;57.00;;;;;;5034473;28;20548;-82
2023/05/16 00:02:36;;;;;;;9.77;8.40;;;18.10;57.10;;;;;;5020504;28;20446;-84
2023/05/16 00:05:06;;;;;;;15.00;9.63;;;18.10;56.60;;;;;;5036015;28;20472;-81
2023/05/16 00:07:34;;;;;;;11.83;9.53;;;17.90;56.40;;;;;;5019251;28;20531;-83
2023/05/16 00:10:02;;;;;;;8.87;7.97;;;17.90;56.40;;;;;;5008733;28;20476;-82
2023/05/16 00:12:29;;;;;;;10.70;8.87;;;18.00;56.40;;;;;;5042088;28;20448;-83
2023/05/16 00:14:56;;;;;;;9.43;7.73;;;18.00;56.10;;;;;;5034381;28;20476;-81
2023/05/16 00:17:27;;;;;;;22.47;8.93;;;18.00;55.90;;;;;;5030875;28;20488;-82
2023/05/16 00:19:57;;;;;;;10.13;8.97;;;18.00;55.90;;;;;;5034829;28;20503;-83
2023/05/16 00:22:24;;;;;;;10.00;8.40;;;18.00;56.00;;;;;;5035330;28;20442;-84
2023/05/16 00:24:51;;;;;;;14.67;10.30;;;17.90;55.70;;;;;;5031725;28;20443;-82
2023/05/16 00:27:20;;;;;;;11.73;9.50;;;17.90;56.40;;;;;;5023009;28;20452;-83
2023/05/16 00:29:49;;;;;;;11.43;8.97;;;17.60;57.50;;;;;;5015626;28;21107;-83
2023/05/16 00:32:18;;;;;;;11.20;8.67;;;17.50;58.10;;;;;;5041021;28;20452;-82
2023/05/16 00:34:45;;;;;;;10.90;9.40;;;17.60;57.60;;;;;;5016950;28;21016;-82
2023/05/16 00:37:13;;;;;;;12.23;9.47;;;17.70;57.40;;;;;;5031232;28;20830;-82
2023/05/16 00:39:40;;;;;;;10.40;9.27;;;17.60;56.90;;;;;;5017808;28;20449;-82
2023/05/16 00:42:07;;;;;;;10.13;9.13;;;17.60;57.10;;;;;;5025278;28;20460;-84
2023/05/16 00:44:37;;;;;;;10.83;9.00;;;17.60;56.90;;;;;;5042511;28;20449;-83
2023/05/16 00:47:04;;;;;;;13.30;9.40;;;17.60;56.70;;;;;;5019408;28;20452;-81
2023/05/16 00:49:31;;;;;;;9.50;8.43;;;17.70;56.60;;;;;;5032728;28;20540;-81
2023/05/16 00:51:58;;;;;;;16.87;9.83;;;17.70;56.50;;;;;;5032160;28;20953;-80
2023/05/16 00:54:28;;;;;;;10.43;9.00;;;17.80;56.50;;;;;;5034687;28;20554;-83
2023/05/16 00:56:55;;;;;;;11.27;9.57;;;17.80;56.40;;;;;;5021121;28;20468;-84
2023/05/16 00:59:23;;;;;;;12.83;9.20;;;17.70;56.40;;;;;;5025672;28;20438;-80
2023/05/16 01:01:52;;;;;;;11.97;9.47;;;17.70;56.30;;;;;;5034851;28;21052;-84
2023/05/16 01:04:19;;;;;;;12.37;9.70;;;17.30;57.30;;;;;;5033683;28;20833;-84
2023/05/16 01:06:46;;;;;;;12.27;9.43;;;17.20;57.10;;;;;;5051529;28;20468;-82
2023/05/16 01:09:14;;;;;;;12.90;10.40;;;17.10;57.20;;;;;;5033702;28;20448;-84
2023/05/16 01:11:48;;;;;;;12.70;10.00;;;17.10;57.90;;;;;;5016247;28;20496;-83
2023/05/16 01:14:22;;;;;;;13.10;9.80;;;17.10;57.80;;;;;;5019270;28;20953;-84
2023/05/16 01:16:56;;;;;;;12.07;10.53;;;17.30;58.10;;;;;;5018404;28;20808;-83
2023/05/16 01:19:47;;;;;;;10.60;9.23;;;17.40;58.20;;;;;;5024493;28;20479;-82
2023/05/16 01:22:24;;;;;;;13.07;9.83;;;17.50;58.00;;;;;;5002870;28;20861;-81
2023/05/16 01:25:11;;;;;;;11.90;9.60;;;17.60;57.90;;;;;;5032960;28;21060;-83
2023/05/16 01:27:41;;;;;;;13.37;9.63;;;17.60;58.40;;;;;;5022644;28;20452;-84
2023/05/16 01:30:15;;;;;;;11.40;10.17;;;17.60;58.60;;;;;;5006873;28;20572;-83
2023/05/16 01:32:43;;;;;;;12.40;9.40;;;17.50;59.00;;;;;;5008739;28;20495;-82
2023/05/16 01:35:14;;;;;;;16.10;9.47;;;17.40;59.30;;;;;;5029917;28;20473;-82
2023/05/16 01:37:49;;;;;;;12.73;8.67;;;17.40;59.50;;;;;;5017325;28;20457;-82
2023/05/16 01:40:22;;;;;;;14.83;10.13;;;17.30;59.80;;;;;;5021950;28;20562;-83
2023/05/16 01:42:54;;;;;;;11.93;9.80;;;17.40;59.80;;;;;;5016683;28;20537;-83
2023/05/16 01:45:26;;;;;;;13.70;9.50;;;17.40;59.30;;;;;;5036522;28;20444;-82
2023/05/16 01:48:03;;;;;;;13.40;9.67;;;17.60;59.40;;;;;;5025205;28;20441;-80
2023/05/16 01:50:34;;;;;;;11.30;9.53;;;17.60;59.30;;;;;;5029734;28;20504;-84
2023/05/16 01:53:07;;;;;;;12.30;9.80;;;17.60;59.80;;;;;;5028114;28;20444;-81
2023/05/16 01:55:46;;;;;;;14.73;10.60;;;17.20;59.70;;;;;;5051221;28;20993;-81
2023/05/16 01:58:15;;;;;;;15.70;10.03;;;17.00;59.90;;;;;;4999411;28;20455;-82
2023/05/16 02:00:43;;;;;;;17.70;11.50;;;16.70;60.80;;;;;;5032995;28;21097;-81
2023/05/16 02:03:10;;;;;;;13.10;10.50;;;16.70;61.30;;;;;;5030586;28;21029;-82
2023/05/16 02:05:38;;;;;;;12.73;10.50;;;16.80;60.60;;;;;;5040198;28;20444;-82
2023/05/16 02:08:07;;;;;;;13.83;10.47;;;16.80;60.70;;;;;;5049163;28;20498;-84
2023/05/16 02:10:34;;;;;;;15.37;10.83;;;17.00;60.20;;;;;;5031267;28;20991;-81
2023/05/16 02:13:01;;;;;;;15.27;12.27;;;17.20;60.50;;;;;;5032805;28;21002;-83
2023/05/16 02:15:30;;;;;;;13.27;9.97;;;17.40;59.90;;;;;;5023103;28;21627;-82
2023/05/16 02:17:57;;;;;;;13.77;9.93;;;17.40;59.70;;;;;;5024977;28;20966;-82
2023/05/16 02:20:24;;;;;;;12.67;9.87;;;17.50;59.70;;;;;;5014828;28;20467;-83
2023/05/16 02:22:51;;;;;;;14.80;9.83;;;17.60;59.80;;;;;;5030241;28;20705;-82
2023/05/16 02:25:18;;;;;;;11.17;10.00;;;17.60;59.50;;;;;;5013793;28;20545;-80
2023/05/16 02:27:45;;;;;;;15.67;10.07;;;17.60;59.40;;;;;;5002766;28;20950;-80
2023/05/16 02:30:13;;;;;;;11.27;10.07;;;17.70;59.40;;;;;;5021281;28;20472;-82
2023/05/16 02:32:43;;;;;;;11.83;9.40;;;17.70;59.50;;;;;;5018683;28;20459;-84
2023/05/16 02:35:11;;;;;;;11.60;9.30;;;17.60;59.40;;;;;;5012628;28;20496;-83
2023/05/16 02:37:38;;;;;;;12.63;10.50;;;17.70;59.40;;;;;;5023199;28;20450;-82
2023/05/16 02:40:07;;;;;;;13.27;10.93;;;17.70;59.40;;;;;;5011603;28;20490;-82
2023/05/16 02:42:36;;;;;;;12.57;11.23;;;17.70;59.60;;;;;;5023692;28;20547;-82
2023/05/16 02:45:04;;;;;;;10.70;9.60;;;17.70;59.60;;;;;;5033090;28;21177;-82
2023/05/16 02:47:31;;;;;;;15.90;12.20;;;17.80;59.70;;;;;;5016740;28;20826;-83
2023/05/16 02:50:01;;;;;;;12.40;9.87;;;17.80;59.60;;;;;;5014325;28;20900;-82
2023/05/16 02:52:28;;;;;;;15.20;10.10;;;17.80;59.40;;;;;;5014995;28;20469;-83
2023/05/16 02:54:56;;;;;;;12.83;10.50;;;17.80;59.20;;;;;;5010032;28;21233;-82
2023/05/16 02:57:23;;;;;;;12.97;10.30;;;17.80;59.00;;;;;;4994399;28;20441;-83
2023/05/16 02:59:50;;;;;;;14.00;11.10;;;17.70;58.20;;;;;;5013014;28;20581;-83
2023/05/16 03:02:17;;;;;;;13.13;11.73;;;17.60;59.10;;;;;;5003240;28;20564;-82
2023/05/16 03:04:44;;;;;;;19.97;12.27;;;17.60;58.70;;;;;;5031108;28;20536;-83
2023/05/16 03:07:13;;;;;;;20.33;12.67;;;17.70;59.20;;;;;;5033084;28;20472;-82
2023/05/16 03:09:40;;;;;;;15.43;10.90;;;17.70;59.20;;;;;;5020317;28;20453;-82
2023/05/16 03:12:07;;;;;;;13.30;10.70;;;17.70;59.40;;;;;;5024244;28;20947;-82
2023/05/16 03:14:35;;;;;;;13.17;11.70;;;17.70;59.50;;;;;;5034379;28;20448;-82
2023/05/16 03:17:03;;;;;;;15.33;11.23;;;17.80;59.30;;;;;;5018033;28;20838;-81
2023/05/16 03:19:30;;;;;;;12.80;10.80;;;17.80;59.10;;;;;;5018455;28;20456;-82
2023/05/16 03:21:57;;;;;;;12.70;11.10;;;17.80;59.40;;;;;;5025233;28;20532;-83
2023/05/16 03:24:26;;;;;;;15.00;12.30;;;17.80;59.80;;;;;;5020020;28;20955;-82
2023/05/16 03:26:53;;;;;;;16.77;12.80;;;17.80;59.10;;;;;;5050105;28;20529;-83
2023/05/16 03:29:21;;;;;;;15.07;11.77;;;17.80;59.20;;;;;;5033613;28;20468;-81
2023/05/16 03:31:48;;;;;;;14.23;11.77;;;17.80;59.00;;;;;;5035887;28;20484;-82
2023/05/16 03:34:15;;;;;;;16.87;11.33;;;17.80;59.30;;;;;;5032906;28;20538;-82
2023/05/16 03:36:42;;;;;;;13.03;10.63;;;17.80;59.20;;;;;;5017433;28;20476;-82
2023/05/16 03:39:09;;;;;;;15.20;11.73;;;17.90;59.10;;;;;;5052159;28;20562;-82
2023/05/16 03:41:37;;;;;;;15.57;10.90;;;17.90;59.10;;;;;;5018723;28;21136;-83
2023/05/16 03:44:05;;;;;;;15.57;11.30;;;17.90;59.00;;;;;;5017801;28;20981;-81
2023/05/16 03:46:32;;;;;;;14.03;11.57;;;17.90;59.40;;;;;;5008052;28;20532;-84
2023/05/16 03:48:59;;;;;;;14.80;11.43;;;17.90;59.50;;;;;;5023640;28;20997;-83
2023/05/16 03:51:26;;;;;;;14.80;11.80;;;17.90;59.30;;;;;;5053123;28;20456;-82
2023/05/16 03:53:53;;;;;;;13.47;11.10;;;17.90;59.00;;;;;;5026241;28;20461;-82
2023/05/16 03:56:21;;;;;;;12.90;11.50;;;17.90;59.10;;;;;;5023622;28;20839;-82
2023/05/16 03:58:49;;;;;;;14.53;12.47;;;17.90;59.30;;;;;;5035234;28;20445;-83
2023/05/16 04:01:16;;;;;;;14.50;11.60;;;17.90;59.10;;;;;;5031474;28;21227;-82
2023/05/16 04:03:43;;;;;;;17.93;12.50;;;18.00;59.10;;;;;;5042613;28;20468;-82
2023/05/16 04:06:10;;;;;;;12.87;10.83;;;17.90;59.30;;;;;;5002137;28;20459;-82
2023/05/16 04:08:39;;;;;;;13.93;11.70;;;17.80;59.70;;;;;;5049658;28;20457;-83
2023/05/16 04:11:06;;;;;;;16.13;13.33;;;17.80;59.40;;;;;;5051271;28;20493;-82
2023/05/16 04:13:33;;;;;;;16.40;10.77;;;17.80;59.70;;;;;;5018135;28;20488;-80
2023/05/16 04:16:02;;;;;;;15.20;12.43;;;17.90;59.80;;;;;;5035024;28;20465;-81
2023/05/16 04:18:29;;;;;;;15.17;12.03;;;17.90;59.80;;;;;;5011052;28;20456;-83
2023/05/16 04:20:56;;;;;;;14.37;12.30;;;17.90;59.60;;;;;;5051509;28;20546;-81
2023/05/16 04:23:23;;;;;;;15.93;12.20;;;17.90;59.80;;;;;;5016139;28;20453;-81
2023/05/16 04:25:50;;;;;;;15.10;11.90;;;17.90;60.00;;;;;;5004302;28;20962;-82
2023/05/16 04:28:17;;;;;;;15.40;12.20;;;17.90;60.10;;;;;;5017011;28;20469;-81
2023/05/16 04:30:44;;;;;;;17.03;13.50;;;17.90;60.40;;;;;;5033614;28;20465;-81
2023/05/16 04:33:12;;;;;;;14.23;11.73;;;17.80;60.90;;;;;;5013332;28;20475;-81
2023/05/16 04:35:39;;;;;;;16.00;11.27;;;17.80;61.00;;;;;;5049835;28;20469;-81
2023/05/16 04:38:06;;;;;;;15.77;11.00;;;17.90;60.60;;;;;;5015537;28;20450;-82
2023/05/16 04:40:34;;;;;;;13.77;11.20;;;17.80;60.30;;;;;;5051440;28;20471;-83
2023/05/16 04:43:01;;;;;;;12.30;10.07;;;17.80;59.70;;;;;;5042289;28;20456;-83
2023/05/16 04:45:27;;;;;;;15.37;11.27;;;17.80;59.60;;;;;;5021259;28;20445;-82
2023/05/16 04:47:54;;;;;;;15.47;10.77;;;17.80;59.80;;;;;;5024653;28;20453;-82
2023/05/16 04:50:23;;;;;;;15.43;11.07;;;17.80;60.20;;;;;;5017074;28;20474;-81
2023/05/16 04:52:50;;;;;;;14.00;11.00;;;17.80;60.20;;;;;;5034841;28;20473;-82
2023/05/16 04:55:17;;;;;;;15.30;12.40;;;17.80;60.20;;;;;;5019257;28;20548;-81
2023/05/16 04:57:44;;;;;;;17.30;11.73;;;17.90;60.30;;;;;;5045032;28;20965;-81
2023/05/16 05:00:12;;;;;;;16.70;11.50;;;17.90;60.20;;;;;;5033645;28;20480;-81
2023/05/16 05:02:39;;;;;;;16.03;12.17;;;17.80;61.00;;;;;;5021182;28;20460;-81
2023/05/16 05:05:08;;;;;;;16.17;11.47;;;17.90;61.00;;;;;;5003388;28;20446;-80
2023/05/16 05:07:39;;;;;;;15.13;12.23;;;17.90;61.00;;;;;;5036202;28;20539;-80
2023/05/16 05:10:07;;;;;;;18.40;11.30;;;17.90;60.90;;;;;;5001864;28;20477;-81
2023/05/16 05:12:35;;;;;;;17.13;12.90;;;17.80;61.50;;;;;;5036023;28;20472;-81
2023/05/16 05:15:02;;;;;;;17.03;11.90;;;17.70;61.50;;;;;;5013108;28;20454;-80
2023/05/16 05:17:29;;;;;;;18.13;12.23;;;17.70;61.70;;;;;;5044167;28;20475;-81
2023/05/16 05:19:56;;;;;;;16.70;11.60;;;17.70;61.30;;;;;;5005877;28;20560;-81
2023/05/16 05:22:23;;;;;;;17.37;13.07;;;17.70;61.00;;;;;;4999344;28;20453;-81
2023/05/16 05:24:51;;;;;;;16.43;12.43;;;17.60;61.30;;;;;;5012121;28;20507;-80
2023/05/16 05:27:18;;;;;;;18.07;13.13;;;17.60;61.00;;;;;;5020723;28;20628;-80
2023/05/16 05:29:45;;;;;;;19.07;12.50;;;17.70;61.00;;;;;;5003302;28;20465;-80
2023/05/16 05:32:12;;;;;;;15.00;10.90;;;17.70;61.00;;;;;;5046188;28;20449;-80
2023/05/16 05:34:39;;;;;;;18.20;12.03;;;17.70;60.60;;;;;;5028793;28;20454;-80
2023/05/16 05:37:07;;;;;;;23.00;12.97;;;17.70;60.00;;;;;;5029130;28;20556;-81
2023/05/16 05:39:33;;;;;;;17.00;12.50;;;17.80;60.60;;;;;;4996140;28;20471;-80
2023/05/16 05:42:02;;;;;;;16.60;11.70;;;17.80;60.90;;;;;;5030212;28;21077;-80
2023/05/16 05:44:29;;;;;;;16.43;12.47;;;17.90;61.20;;;;;;5034684;28;20456;-80
2023/05/16 05:46:57;;;;;;;15.13;11.93;;;17.90;61.20;;;;;;5048596;28;20451;-79
2023/05/16 05:49:24;;;;;;;17.23;12.53;;;17.90;61.60;;;;;;5013521;28;20456;-80
2023/05/16 05:51:51;;;;;;;20.07;13.80;;;17.90;61.80;;;;;;5034538;28;20460;-80
2023/05/16 05:54:19;;;;;;;22.20;15.13;;;17.90;61.60;;;;;;5014084;28;20449;-79
2023/05/16 05:56:46;;;;;;;16.40;12.10;;;17.90;61.30;;;;;;5033650;28;20477;-80
2023/05/16 05:59:14;;;;;;;20.87;14.10;;;18.00;61.30;;;;;;5037536;28;20445;-80
2023/05/16 06:01:42;;;;;;;19.20;13.17;;;18.00;61.40;;;;;;5049081;28;21270;-81
2023/05/16 06:04:09;;;;;;;20.23;13.47;;;18.00;61.60;;;;;;5020725;28;20929;-79
2023/05/16 06:06:38;;;;;;;15.77;11.67;;;17.90;61.30;;;;;;5039824;28;20445;-81
2023/05/16 06:09:05;;;;;;;19.53;12.90;;;17.90;61.50;;;;;;5032024;28;20449;-81
2023/05/16 06:11:32;;;;;;;18.57;12.77;;;17.90;61.50;;;;;;5016421;28;20595;-81
2023/05/16 06:13:59;;;;;;;16.03;12.10;;;17.90;61.50;;;;;;5019067;28;20544;-80
2023/05/16 06:16:28;;;;;;;21.47;14.53;;;17.70;62.40;;;;;;5033958;28;20999;-80
2023/05/16 06:18:55;;;;;;;20.17;13.07;;;17.50;64.10;;;;;;5029157;28;20448;-80
2023/05/16 06:21:22;;;;;;;17.97;13.13;;;17.50;63.30;;;;;;5027112;28;20476;-80
2023/05/16 06:23:49;;;;;;;18.23;14.40;;;17.50;63.50;;;;;;5016436;28;20469;-78
2023/05/16 06:26:16;;;;;;;20.10;14.33;;;17.60;63.40;;;;;;5015946;28;20901;-81
2023/05/16 06:28:43;;;;;;;24.53;14.00;;;17.80;63.30;;;;;;5015488;28;20452;-78
2023/05/16 06:31:10;;;;;;;21.07;13.37;;;17.80;63.20;;;;;;5005105;28;20466;-78
2023/05/16 06:33:38;;;;;;;24.50;16.17;;;17.70;62.70;;;;;;5014292;28;20800;-79
2023/05/16 06:36:05;;;;;;;22.53;13.93;;;17.60;62.10;;;;;;5029589;28;20472;-80
2023/05/16 06:38:32;;;;;;;20.13;14.03;;;17.60;61.80;;;;;;5023579;28;20453;-81
2023/05/16 06:40:59;;;;;;;23.00;14.37;;;17.30;61.90;;;;;;5036790;28;20568;-80
2023/05/16 06:43:27;;;;;;;18.07;12.70;;;17.10;63.10;;;;;;5023387;28;20452;-81
2023/05/16 06:45:54;;;;;;;18.27;12.43;;;17.20;62.60;;;;;;5043291;28;20865;-79
2023/05/16 06:48:21;;;;;;;16.80;12.60;;;17.40;63.30;;;;;;5021238;28;20572;-79
2023/05/16 06:50:49;;;;;;;18.20;13.27;;;17.50;62.50;;;;;;5036386;28;20910;-80
2023/05/16 06:53:16;;;;;;;17.13;12.10;;;17.60;61.60;;;;;;5034136;28;20529;-79
2023/05/16 06:55:44;;;;;;;19.40;13.90;;;17.70;61.00;;;;;;5036502;28;20453;-80
2023/05/16 06:58:11;;;;;;;19.73;13.43;;;17.60;61.60;;;;;;5021598;28;20457;-80
2023/05/16 07:00:39;;;;;;;19.00;13.33;;;17.60;61.80;;;;;;5052687;28;20464;-80
2023/05/16 07:03:06;;;;;;;18.30;12.00;;;17.80;62.00;;;;;;5032569;28;20854;-81
2023/05/16 07:05:33;;;;;;;17.30;10.83;;;17.90;61.80;;;;;;5027820;28;20466;-80
2023/05/16 07:08:01;;;;;;;16.37;12.13;;;17.70;59.70;;;;;;5011564;28;20453;-81
2023/05/16 07:10:28;;;;;;;17.93;12.20;;;17.70;60.90;;;;;;5037893;28;20472;-78
2023/05/16 07:12:57;;;;;;;15.57;11.50;;;17.70;60.30;;;;;;5021880;28;20442;-80
2023/05/16 07:15:23;;;;;;;13.40;10.93;;;17.50;58.80;;;;;;5027702;28;20899;-81
2023/05/16 07:17:51;;;;;;;19.17;14.97;;;17.50;59.80;;;;;;5018308;28;21336;-81
2023/05/16 07:20:18;;;;;;;13.77;11.30;;;17.60;59.50;;;;;;5034878;28;20477;-80
2023/05/16 07:22:45;;;;;;;18.10;10.70;;;17.70;59.60;;;;;;5022649;28;20468;-80
2023/05/16 07:25:15;;;;;;;18.57;10.77;;;17.80;61.00;;;;;;5017092;28;21230;-80
2023/05/16 07:27:43;;;;;;;14.30;11.53;;;17.90;60.90;;;;;;5013182;28;20444;-80
2023/05/16 07:30:12;;;;;;;16.00;11.70;;;17.50;58.60;;;;;;5025880;28;21243;-82
2023/05/16 07:32:39;;;;;;;14.23;9.83;;;17.40;58.00;;;;;;5038449;28;20458;-80
2023/05/16 07:35:08;;;;;;;14.83;9.67;;;17.40;58.00;;;;;;5052436;28;21215;-81
2023/05/16 07:37:35;;;;;;;16.10;11.00;;;17.50;59.10;;;;;;5017275;28;20481;-80
2023/05/16 07:40:03;;;;;;;13.90;11.40;;;17.60;58.20;;;;;;5044547;28;20469;-82
2023/05/16 07:42:32;;;;;;;12.33;9.80;;;17.60;58.00;;;;;;5035549;28;20514;-80
2023/05/16 07:44:59;;;;;;;14.20;9.40;;;17.50;56.80;;;;;;5023398;28;20480;-80
2023/05/16 07:47:26;;;;;;;11.60;8.97;;;17.70;58.10;;;;;;5025832;28;20456;-79
2023/05/16 07:49:53;;;;;;;10.90;9.60;;;17.80;56.80;;;;;;5016759;28;20460;-81
2023/05/16 07:52:20;;;;;;;11.87;8.87;;;17.90;57.50;;;;;;5021676;28;20452;-80
2023/05/16 07:54:48;;;;;;;15.03;9.00;;;17.90;58.00;;;;;;5019498;28;20535;-81
2023/05/16 07:57:15;;;;;;;10.67;8.23;;;18.00;56.80;;;;;;5033102;28;20481;-81
2023/05/16 07:59:44;;;;;;;12.50;10.03;;;17.90;57.60;;;;;;5033004;28;20946;-81
2023/05/16 08:02:11;;;;;;;11.10;7.90;;;17.80;56.40;;;;;;5052160;28;20510;-82
2023/05/16 08:04:38;;;;;;;11.67;8.53;;;17.90;56.30;;;;;;5028638;28;20487;-78
2023/05/16 08:07:05;;;;;;;13.60;8.60;;;18.00;57.30;;;;;;5016191;28;21148;-81
2023/05/16 08:09:32;;;;;;;14.00;8.87;;;18.30;57.90;;;;;;5032647;28;20448;-84
2023/05/16 08:12:02;;;;;;;12.20;8.20;;;18.30;56.80;;;;;;5012703;28;20444;-80
2023/05/16 08:14:31;;;;;;;11.40;8.07;;;18.30;56.50;;;;;;5025836;28;20460;-80
2023/05/16 08:17:00;;;;;;;10.83;8.10;;;18.30;56.90;;;;;;5043248;28;20488;-79
2023/05/16 08:19:28;;;;;;;13.43;8.33;;;17.90;55.70;;;;;;5030379;28;20455;-80
2023/05/16 08:21:55;;;;;;;11.83;8.20;;;17.40;55.90;;;;;;5008029;28;20500;-81
2023/05/16 08:24:22;;;;;;;11.37;8.40;;;17.40;57.70;;;;;;5031299;28;20453;-82
2023/05/16 08:26:49;;;;;;;15.00;9.57;;;17.60;57.90;;;;;;5033166;28;20443;-80
2023/05/16 08:29:16;;;;;;;13.30;8.43;;;17.50;56.60;;;;;;5048835;28;20470;-80
2023/05/16 08:31:43;;;;;;;12.13;8.23;;;17.60;57.60;;;;;;5025686;28;20484;-80
2023/05/16 08:34:11;;;;;;;13.13;8.73;;;17.40;57.10;;;;;;5030800;28;20452;-77
2023/05/16 08:36:38;;;;;;;12.70;9.10;;;17.40;57.40;;;;;;5019263;28;20480;-80
2023/05/16 08:39:06;;;;;;;11.90;8.87;;;17.50;58.60;;;;;;5032824;28;20450;-79
2023/05/16 08:41:33;;;;;;;11.90;10.20;;;17.50;56.90;;;;;;5032237;28;20473;-80
2023/05/16 08:44:00;;;;;;;14.90;8.20;;;17.40;58.10;;;;;;5040808;28;20459;-80
2023/05/16 08:46:29;;;;;;;14.97;8.67;;;17.40;57.70;;;;;;5022875;28;20464;-79
2023/05/16 08:48:59;;;;;;;11.70;8.40;;;17.40;57.60;;;;;;5017880;28;20533;-79
2023/05/16 08:51:33;;;;;;;10.30;7.43;;;17.30;59.20;;;;;;5016178;28;20468;-81
2023/05/16 08:54:03;;;;;;;12.57;8.67;;;17.40;57.90;;;;;;5032981;28;20461;-78
2023/05/16 08:56:32;;;;;;;11.30;8.30;;;17.40;57.60;;;;;;5050583;28;20448;-80
2023/05/16 08:59:00;;;;;;;11.40;9.23;;;17.30;57.60;;;;;;5032351;28;20453;-80
2023/05/16 09:01:27;;;;;;;8.37;6.57;;;16.80;57.90;;;;;;5020853;28;20483;-82
2023/05/16 09:03:56;;;;;;;8.70;6.43;;;16.70;58.20;;;;;;5033640;28;20459;-80
2023/05/16 09:06:23;;;;;;;7.80;5.60;;;16.50;59.10;;;;;;5000556;28;20953;-79
2023/05/16 09:08:52;;;;;;;8.10;5.80;;;16.50;59.10;;;;;;5051253;28;20528;-82
2023/05/16 09:11:19;;;;;;;6.13;5.37;;;16.60;59.50;;;;;;5030209;28;20469;-80
2023/05/16 09:13:46;;;;;;;7.80;5.70;;;16.70;57.50;;;;;;5038852;28;20548;-82
2023/05/16 09:16:14;;;;;;;8.60;6.20;;;16.60;58.30;;;;;;5005857;28;20493;-81
2023/05/16 09:18:43;;;;;;;8.23;7.03;;;16.60;57.90;;;;;;5018771;28;20469;-80
2023/05/16 09:21:11;;;;;;;8.20;5.50;;;17.00;58.00;;;;;;5032701;28;20479;-81
2023/05/16 09:23:38;;;;;;;8.43;4.73;;;17.10;56.00;;;;;;5033403;28;20448;-80
2023/05/16 09:26:07;;;;;;;6.37;5.20;;;16.70;55.80;;;;;;5016512;28;20457;-81
2023/05/16 09:28:34;;;;;;;6.27;5.40;;;16.60;55.50;;;;;;5035916;28;20461;-80
2023/05/16 09:31:02;;;;;;;7.70;4.10;;;16.40;55.70;;;;;;5004481;28;20516;-81
2023/05/16 09:33:29;;;;;;;6.07;3.70;;;16.60;55.90;;;;;;5006495;28;20542;-81
2023/05/16 09:35:57;;;;;;;7.20;3.67;;;16.70;54.70;;;;;;5024759;28;20987;-81
2023/05/16 09:38:26;;;;;;;6.73;4.90;;;16.90;55.60;;;;;;5008075;28;20488;-81
2023/05/16 09:40:53;;;;;;;5.80;5.03;;;17.20;56.40;;;;;;5016200;28;20484;-79
2023/05/16 09:43:25;;;;;;;5.87;4.77;;;17.50;56.00;;;;;;5014525;28;20463;-79
2023/05/16 09:45:54;;;;;;;5.13;4.40;;;17.40;55.50;;;;;;5043400;28;20449;-82
2023/05/16 09:48:22;;;;;;;5.17;4.00;;;17.50;54.70;;;;;;5017132;28;20460;-84
2023/05/16 09:50:52;;;;;;;6.77;4.30;;;17.60;54.70;;;;;;5021489;28;20477;-82
2023/05/16 09:53:25;;;;;;;4.33;3.87;;;17.80;55.60;;;;;;5032338;28;20540;-83
2023/05/16 09:56:00;;;;;;;5.60;4.33;;;17.90;53.60;;;;;;5015750;28;20444;-83
2023/05/16 09:58:30;;;;;;;6.93;4.47;;;18.10;54.40;;;;;;4999549;28;20472;-82
2023/05/16 10:00:58;;;;;;;5.13;3.53;;;17.90;54.10;;;;;;5052122;28;20524;-80
2023/05/16 10:03:25;;;;;;;11.10;4.77;;;18.10;54.50;;;;;;5007231;28;20450;-82
2023/05/16 10:05:53;;;;;;;6.63;4.70;;;18.00;54.00;;;;;;5020442;28;21211;-80
2023/05/16 10:08:21;;;;;;;8.93;4.53;;;18.10;54.50;;;;;;5014796;28;20433;-82
2023/05/16 10:10:52;;;;;;;5.03;3.63;;;18.10;53.50;;;;;;5032364;28;21317;-82
2023/05/16 10:13:21;;;;;;;6.03;3.30;;;18.30;52.90;;;;;;5040607;28;20488;-79
2023/05/16 10:15:50;;;;;;;4.17;3.20;;;18.30;53.30;;;;;;5024251;28;20445;-79
2023/05/16 10:18:18;;;;;;;6.30;3.60;;;18.20;51.00;;;;;;5026065;28;20469;-81
2023/05/16 10:20:51;;;;;;;6.33;2.70;;;18.30;51.90;;;;;;5006637;28;20476;-79
2023/05/16 10:23:19;;;;;;;3.53;3.23;;;18.20;51.30;;;;;;5016848;28;20455;-80
2023/05/16 10:25:47;;;;;;;3.17;2.37;;;18.70;51.60;;;;;;5027946;28;20464;-81
2023/05/16 10:28:15;;;;;;;4.23;2.80;;;18.90;52.30;;;;;;5017110;28;20464;-79
2023/05/16 10:30:43;;;;;;;2.13;1.83;;;19.30;50.80;;;;;;5033676;28;20468;-82
2023/05/16 10:33:13;;;;;;;1.80;1.53;;;19.20;50.70;;;;;;5002107;28;20442;-81
2023/05/16 10:35:41;;;;;;;4.00;2.27;;;18.90;50.40;;;;;;5050245;28;20460;-81
2023/05/16 10:38:10;;;;;;;1.53;1.43;;;18.50;52.50;;;;;;5031863;28;20843;-80
2023/05/16 10:40:39;;;;;;;2.47;2.27;;;18.20;51.10;;;;;;5029015;28;20462;-81
2023/05/16 10:43:08;;;;;;;4.20;1.80;;;18.00;52.70;;;;;;5026951;28;20465;-81
2023/05/16 10:45:39;;;;;;;1.90;1.80;;;17.60;53.00;;;;;;5034731;28;20441;-80
2023/05/16 10:48:08;;;;;;;4.50;1.70;;;17.60;53.50;;;;;;5021192;28;20538;-78
2023/05/16 10:50:38;;;;;;;2.37;1.90;;;17.40;53.30;;;;;;5049345;28;20460;-80
2023/05/16 10:53:20;;;;;;;1.60;1.40;;;17.30;53.30;;;;;;5023635;28;20476;-81
2023/05/16 10:56:09;;;;;;;1.60;1.50;;;17.10;53.50;;;;;;5017861;28;20666;-82
2023/05/16 10:58:43;;;;;;;3.00;1.40;;;17.10;53.50;;;;;;5006260;28;20474;-81
2023/05/16 11:01:19;;;;;;;1.70;1.27;;;17.20;53.60;;;;;;5021341;28;20452;-82
2023/05/16 11:04:09;;;;;;;1.63;1.30;;;17.40;53.80;;;;;;5010536;28;20510;-81
2023/05/16 11:06:53;;;;;;;4.23;1.40;;;17.60;53.10;;;;;;5040481;28;21021;-84
2023/05/16 11:09:23;;;;;;;1.17;1.07;;;17.80;52.70;;;;;;5013925;28;20442;-80
2023/05/16 11:11:57;;;;;;;1.87;1.77;;;17.70;52.20;;;;;;5024238;28;20488;-80
2023/05/16 11:14:25;;;;;;;1.80;1.40;;;17.60;52.20;;;;;;5031118;28;20550;-80
2023/05/16 11:16:59;;;;;;;3.13;2.10;;;17.70;53.10;;;;;;5019421;28;20514;-82
2023/05/16 11:19:32;;;;;;;2.10;1.90;;;17.70;52.10;;;;;;5028639;28;20505;-81
2023/05/16 11:22:07;;;;;;;1.50;1.40;;;18.00;53.60;;;;;;5025303;28;21056;-82
2023/05/16 11:24:35;;;;;;;2.40;1.77;;;18.30;50.70;;;;;;5036297;28;20985;-81
2023/05/16 11:27:03;;;;;;;1.40;1.30;;;18.30;49.30;;;;;;5029457;28;20457;-79
2023/05/16 11:29:32;;;;;;;1.87;1.20;;;18.00;49.30;;;;;;5009637;28;20895;-80
2023/05/16 11:32:00;;;;;;;1.30;1.20;;;18.00;50.60;;;;;;5030173;28;20460;-84
2023/05/16 11:34:27;;;;;;;12.07;6.90;;;18.20;48.90;;;;;;5004475;28;20453;-80
2023/05/16 11:36:55;;;;;;;10.07;5.47;;;18.20;49.30;;;;;;5036186;28;21292;-83
2023/05/16 11:39:24;;;;;;;1.60;1.50;;;18.50;50.30;;;;;;5033067;28;20465;-81
2023/05/16 11:41:51;;;;;;;2.10;1.33;;;18.60;48.50;;;;;;5039695;28;20479;-81
2023/05/16 11:44:18;;;;;;;2.23;1.70;;;18.40;48.80;;;;;;5035737;28;20441;-82
2023/05/16 11:46:45;;;;;;;1.83;1.40;;;18.30;48.70;;;;;;5029451;28;20898;-82
2023/05/16 11:49:13;;;;;;;2.00;1.70;;;18.00;49.60;;;;;;5040563;28;20446;-80
2023/05/16 11:51:40;;;;;;;3.67;2.00;;;17.90;50.40;;;;;;5028349;28;20480;-83
2023/05/16 11:54:09;;;;;;;6.50;4.03;;;18.00;50.50;;;;;;5014211;28;20445;-82
2023/05/16 11:56:37;;;;;;;3.33;2.70;;;18.10;49.80;;;;;;5019223;28;20496;-81
2023/05/16 11:59:04;;;;;;;3.60;2.50;;;18.20;50.20;;;;;;5021817;28;20474;-84
2023/05/16 12:01:34;;;;;;;2.40;2.00;;;18.40;48.50;;;;;;5010964;28;20900;-80
2023/05/16 12:04:01;;;;;;;2.17;1.63;;;18.60;48.80;;;;;;5004335;28;20463;-81
2023/05/16 12:06:30;;;;;;;1.77;1.50;;;18.60;47.40;;;;;;5036678;28;21076;-83
2023/05/16 12:08:56;;;;;;;1.60;1.50;;;18.60;46.60;;;;;;5034064;28;20450;-82
2023/05/16 12:11:24;;;;;;;2.23;1.73;;;18.60;47.20;;;;;;5008954;28;21066;-81
2023/05/16 12:13:52;;;;;;;1.47;1.30;;;18.40;47.90;;;;;;5005481;28;20465;-82
2023/05/16 12:16:20;;;;;;;4.30;1.83;;;18.40;46.90;;;;;;5024726;28;20461;-81
2023/05/16 12:18:48;;;;;;;4.03;1.83;;;18.40;47.70;;;;;;5021618;28;20480;-81
2023/05/16 12:21:16;;;;;;;2.40;1.57;;;18.30;47.30;;;;;;5021637;28;20813;-83
2023/05/16 12:23:43;;;;;;;2.90;2.30;;;18.50;47.50;;;;;;5019969;28;20975;-81
2023/05/16 12:26:10;;;;;;;2.23;2.00;;;18.50;46.80;;;;;;5035757;28;20460;-83
2023/05/16 12:28:38;;;;;;;1.70;1.60;;;18.60;47.50;;;;;;5010207;28;20452;-80
2023/05/16 12:31:19;;;;;;;1.97;1.50;;;18.60;46.10;;;;;;5035179;28;20476;-81
2023/05/16 12:33:46;;;;;;;2.67;1.63;;;18.50;45.40;;;;;;5035491;28;20440;-81
2023/05/16 12:36:15;;;;;;;3.50;3.30;;;18.30;46.40;;;;;;5034532;28;20461;-83
2023/05/16 12:38:46;;;;;;;2.03;1.83;;;18.40;46.60;;;;;;5052496;28;20479;-82
2023/05/16 12:41:18;;;;;;;3.30;3.10;;;18.30;46.00;;;;;;5027986;28;20503;-80